createdAt,value
2017-11-07T00:00:00.185Z,8.00
2017-11-07T00:02:28.472Z,8.73
2017-11-07T00:04:56.740Z,9.87
2017-11-07T00:07:25.025Z,11.60
2017-11-07T00:09:53.549Z,12.67
2017-11-07T00:12:21.837Z,8.77
2017-11-07T00:14:50.121Z,7.67
2017-11-07T00:17:18.405Z,9.43
2017-11-07T00:19:46.694Z,11.60
2017-11-07T00:22:14.978Z,11.68
2017-11-07T00:24:43.637Z,9.40
2017-11-07T00:27:11.919Z,9.38
2017-11-07T00:29:40.197Z,7.70
2017-11-07T00:32:08.468Z,8.65
2017-11-07T00:34:36.752Z,8.70
2017-11-07T00:37:05.049Z,6.37
2017-11-07T00:39:33.336Z,8.60
2017-11-07T00:42:03.621Z,6.33
2017-11-07T00:44:31.901Z,9.32
2017-11-07T00:47:00.183Z,10.07
2017-11-07T00:49:28.459Z,5.73
2017-11-07T00:51:58.338Z,6.50
2017-11-07T00:54:26.637Z,6.27
2017-11-07T00:56:54.917Z,8.67
2017-11-07T00:59:23.193Z,6.90
2017-11-07T01:01:52.984Z,6.10
2017-11-07T01:04:21.287Z,5.80
2017-11-07T01:06:49.576Z,6.00
2017-11-07T01:09:17.848Z,5.13
2017-11-07T01:11:46.136Z,6.50
2017-11-07T01:14:14.412Z,7.62
2017-11-07T01:16:43.739Z,9.83
2017-11-07T01:19:12.017Z,7.60
2017-11-07T01:21:40.933Z,9.00
2017-11-07T01:24:09.976Z,5.90
2017-11-07T01:26:38.257Z,5.73
2017-11-07T01:29:06.580Z,8.30
2017-11-07T01:31:34.921Z,6.50
2017-11-07T01:34:03.195Z,8.00
2017-11-07T01:36:31.477Z,6.57
2017-11-07T01:39:00.522Z,4.97
2017-11-07T01:41:28.937Z,6.50
2017-11-07T01:43:57.219Z,8.50
2017-11-07T01:46:26.277Z,7.55
2017-11-07T01:48:54.580Z,6.57
2017-11-07T01:51:22.864Z,6.25
2017-11-07T01:53:51.161Z,7.33
2017-11-07T01:56:20.213Z,6.70
2017-11-07T01:58:48.532Z,9.73
2017-11-07T02:01:16.813Z,5.80
2017-11-07T02:03:45.092Z,8.73
2017-11-07T02:06:13.367Z,8.10
2017-11-07T02:08:41.641Z,7.53
2017-11-07T02:11:09.916Z,7.90
2017-11-07T02:13:38.192Z,6.20
2017-11-07T02:16:06.473Z,5.90
2017-11-07T02:18:35.532Z,10.10
2017-11-07T02:21:06.146Z,12.03
2017-11-07T02:23:34.429Z,12.80
2017-11-07T02:26:02.726Z,10.57
2017-11-07T02:28:31.787Z,13.02
2017-11-07T02:31:00.831Z,8.67
2017-11-07T02:33:29.932Z,6.47
2017-11-07T02:35:58.228Z,10.50
2017-11-07T02:38:26.509Z,6.80
2017-11-07T02:40:54.778Z,4.17
2017-11-07T02:43:23.058Z,4.80
2017-11-07T02:45:51.344Z,5.43
2017-11-07T02:48:19.613Z,4.97
2017-11-07T02:50:47.892Z,4.12
2017-11-07T02:53:16.170Z,4.27
2017-11-07T02:55:45.320Z,5.60
2017-11-07T02:58:13.613Z,5.30
2017-11-07T03:00:41.893Z,4.67
2017-11-07T03:03:10.185Z,7.37
2017-11-07T03:05:38.481Z,8.67
2017-11-07T03:08:06.765Z,9.00
2017-11-07T03:10:35.041Z,6.43
2017-11-07T03:13:03.329Z,6.87
2017-11-07T03:15:31.624Z,6.00
2017-11-07T03:17:59.911Z,7.13
2017-11-07T03:20:28.952Z,7.00
2017-11-07T03:22:57.236Z,8.63
2017-11-07T03:25:25.526Z,9.07
2017-11-07T03:27:53.805Z,8.43
2017-11-07T03:30:22.098Z,7.60
2017-11-07T03:32:51.332Z,10.43
2017-11-07T03:35:19.604Z,6.77
2017-11-07T03:37:48.256Z,5.43
2017-11-07T03:40:16.540Z,6.07
2017-11-07T03:42:45.661Z,6.47
2017-11-07T03:45:13.944Z,4.30
2017-11-07T03:47:42.225Z,6.00
2017-11-07T03:50:10.509Z,3.13
2017-11-07T03:52:39.251Z,4.82
2017-11-07T03:55:07.540Z,9.60
2017-11-07T03:57:35.817Z,4.97
2017-11-07T04:00:04.865Z,6.87
2017-11-07T04:02:33.168Z,5.77
2017-11-07T04:05:01.473Z,8.33
2017-11-07T04:07:29.758Z,5.77
2017-11-07T04:09:58.041Z,3.17
2017-11-07T04:12:26.320Z,11.03
2017-11-07T04:14:54.602Z,11.10
2017-11-07T04:17:22.870Z,9.90
2017-11-07T04:19:51.153Z,5.00
2017-11-07T04:22:19.461Z,6.60
2017-11-07T04:24:47.740Z,8.20
2017-11-07T04:27:16.033Z,5.07
2017-11-07T04:29:44.318Z,8.47
2017-11-07T04:32:12.610Z,9.90
2017-11-07T04:34:40.885Z,7.37
2017-11-07T04:37:09.161Z,5.27
2017-11-07T04:39:37.440Z,5.90
2017-11-07T04:42:05.718Z,6.93
2017-11-07T04:44:34.009Z,6.45
2017-11-07T04:47:05.232Z,5.50
2017-11-07T04:49:34.273Z,5.93
2017-11-07T04:52:02.570Z,6.67
2017-11-07T04:54:30.837Z,7.85
2017-11-07T04:56:59.121Z,5.07
2017-11-07T04:59:27.401Z,9.23
2017-11-07T05:01:55.688Z,6.30
2017-11-07T05:04:23.953Z,4.93
2017-11-07T05:06:52.219Z,7.60
2017-11-07T05:09:20.519Z,8.03
2017-11-07T05:11:48.787Z,6.47
2017-11-07T05:14:17.069Z,5.80
2017-11-07T05:16:46.796Z,7.80
2017-11-07T05:19:15.841Z,5.30
2017-11-07T05:21:44.126Z,6.80
2017-11-07T05:24:12.429Z,7.30
2017-11-07T05:26:42.049Z,9.90
2017-11-07T05:29:11.099Z,6.10
2017-11-07T05:31:39.382Z,4.97
2017-11-07T05:34:07.659Z,7.20
2017-11-07T05:36:35.927Z,8.33
2017-11-07T05:39:04.210Z,7.10
2017-11-07T05:41:32.489Z,7.40
2017-11-07T05:44:00.787Z,8.90
2017-11-07T05:46:29.064Z,13.57
2017-11-07T05:48:58.125Z,7.93
2017-11-07T05:51:26.413Z,6.90
2017-11-07T05:53:54.709Z,4.70
2017-11-07T05:56:23.008Z,5.70
2017-11-07T05:58:51.828Z,7.57
2017-11-07T06:01:20.111Z,8.53
2017-11-07T06:03:48.426Z,6.80
2017-11-07T06:06:17.049Z,7.87
2017-11-07T06:08:45.324Z,9.20
2017-11-07T06:11:13.609Z,11.60
2017-11-07T06:13:41.917Z,10.98
2017-11-07T06:16:10.220Z,9.83
2017-11-07T06:18:39.269Z,10.63
2017-11-07T06:21:07.571Z,11.53
2017-11-07T06:23:35.856Z,9.40
2017-11-07T06:26:04.144Z,10.37
2017-11-07T06:28:32.441Z,11.85
2017-11-07T06:31:00.732Z,12.73
2017-11-07T06:33:29.012Z,9.43
2017-11-07T06:35:57.288Z,9.00
2017-11-07T06:38:25.566Z,10.80
2017-11-07T06:40:53.860Z,7.80
2017-11-07T06:43:22.152Z,10.80
2017-11-07T06:45:50.411Z,7.77
2017-11-07T06:48:18.947Z,10.70
2017-11-07T06:50:47.229Z,7.07
2017-11-07T06:53:16.275Z,8.40
2017-11-07T06:55:44.568Z,8.23
2017-11-07T06:58:12.880Z,9.67
2017-11-07T07:00:41.163Z,9.83
2017-11-07T07:03:09.448Z,20.90
2017-11-07T07:05:37.737Z,18.77
2017-11-07T07:08:06.009Z,14.27
2017-11-07T07:10:34.286Z,9.47
2017-11-07T07:13:02.968Z,10.23
2017-11-07T07:15:31.261Z,8.50
2017-11-07T07:18:00.230Z,12.30
2017-11-07T07:20:31.438Z,9.68
2017-11-07T07:22:59.712Z,7.67
2017-11-07T07:25:27.996Z,11.67
2017-11-07T07:27:56.271Z,9.20
2017-11-07T07:30:24.888Z,12.00
2017-11-07T07:32:53.180Z,10.00
2017-11-07T07:35:21.465Z,9.43
2017-11-07T07:37:49.744Z,9.90
2017-11-07T07:40:18.017Z,10.43
2017-11-07T07:42:46.299Z,10.30
2017-11-07T07:45:14.600Z,10.80
2017-11-07T07:47:43.651Z,10.27
2017-11-07T07:50:11.924Z,7.50
2017-11-07T07:52:40.191Z,7.97
2017-11-07T07:55:11.292Z,8.63
2017-11-07T07:57:39.569Z,9.33
2017-11-07T08:00:08.622Z,9.93
2017-11-07T08:02:36.889Z,9.48
2017-11-07T08:05:05.171Z,8.20
2017-11-07T08:07:33.448Z,8.73
2017-11-07T08:10:01.728Z,7.70
2017-11-07T08:12:30.688Z,6.87
2017-11-07T08:14:58.973Z,6.60
2017-11-07T08:17:27.253Z,8.97
2017-11-07T08:19:55.533Z,9.37
2017-11-07T08:22:24.205Z,11.90
2017-11-07T08:24:53.454Z,11.10
2017-11-07T08:27:21.985Z,10.10
2017-11-07T08:29:50.256Z,8.50
2017-11-07T08:32:18.544Z,11.30
2017-11-07T08:34:46.833Z,10.85
2017-11-07T08:37:15.117Z,11.27
2017-11-07T08:39:43.397Z,14.00
2017-11-07T08:42:11.676Z,9.50
2017-11-07T08:44:40.236Z,12.85
2017-11-07T08:47:08.509Z,10.83
2017-11-07T08:49:36.788Z,12.40
2017-11-07T08:52:05.068Z,13.93
2017-11-07T08:54:33.349Z,13.20
2017-11-07T08:57:01.625Z,11.37
2017-11-07T08:59:29.907Z,11.73
2017-11-07T09:01:58.193Z,12.60
2017-11-07T09:04:26.472Z,14.13
2017-11-07T09:06:54.756Z,11.73
2017-11-07T09:09:23.053Z,10.23
2017-11-07T09:11:51.333Z,13.63
2017-11-07T09:14:20.393Z,12.80
2017-11-07T09:16:48.673Z,14.07
2017-11-07T09:19:16.960Z,10.30
2017-11-07T09:21:45.247Z,10.60
2017-11-07T09:24:13.531Z,10.70
2017-11-07T09:26:42.581Z,10.40
2017-11-07T09:29:10.865Z,11.02
2017-11-07T09:31:39.161Z,10.80
2017-11-07T09:34:07.445Z,9.90
2017-11-07T09:36:35.942Z,12.18
2017-11-07T09:39:04.985Z,10.10
2017-11-07T09:41:33.257Z,10.90
2017-11-07T09:44:01.545Z,12.57
2017-11-07T09:46:29.832Z,12.30
2017-11-07T09:48:58.113Z,12.07
2017-11-07T09:51:26.394Z,10.10
2017-11-07T09:53:54.669Z,11.10
2017-11-07T09:56:22.944Z,10.05
2017-11-07T09:58:51.238Z,13.77
2017-11-07T10:01:19.520Z,10.97
2017-11-07T10:03:47.832Z,10.07
2017-11-07T10:06:16.112Z,11.90
2017-11-07T10:08:44.425Z,10.25
2017-11-07T10:11:12.753Z,13.90
2017-11-07T10:13:41.041Z,10.60
2017-11-07T10:16:09.330Z,11.57
2017-11-07T10:18:38.385Z,12.87
2017-11-07T10:21:07.447Z,12.07
2017-11-07T10:23:35.759Z,11.13
2017-11-07T10:26:04.092Z,11.73
2017-11-07T10:28:32.379Z,14.60
2017-11-07T10:31:00.660Z,9.87
2017-11-07T10:33:28.941Z,12.90
2017-11-07T10:35:57.261Z,8.83
2017-11-07T10:38:25.662Z,16.30
2017-11-07T10:40:53.945Z,12.07
2017-11-07T10:43:22.236Z,11.53
2017-11-07T10:45:50.540Z,13.37
2017-11-07T10:48:20.485Z,12.60
2017-11-07T10:50:50.701Z,11.80
2017-11-07T10:53:18.981Z,15.13
2017-11-07T10:55:47.257Z,11.00
2017-11-07T10:58:20.022Z,12.97
2017-11-07T11:00:48.300Z,15.30
2017-11-07T11:03:16.580Z,13.37
2017-11-07T11:05:44.862Z,12.40
2017-11-07T11:08:13.188Z,12.43
2017-11-07T11:10:41.472Z,11.90
2017-11-07T11:13:09.738Z,16.07
2017-11-07T11:15:38.020Z,11.60
2017-11-07T11:18:06.301Z,15.20
2017-11-07T11:20:34.588Z,12.97
2017-11-07T11:23:03.636Z,12.95
2017-11-07T11:25:32.756Z,12.20
2017-11-07T11:28:01.060Z,12.17
2017-11-07T11:30:29.342Z,10.37
2017-11-07T11:32:58.409Z,12.60
2017-11-07T11:35:26.689Z,10.13
2017-11-07T11:37:54.976Z,11.33
2017-11-07T11:40:23.263Z,13.50
2017-11-07T11:42:51.534Z,9.32
2017-11-07T11:45:21.208Z,9.23
2017-11-07T11:47:49.537Z,9.00
2017-11-07T11:50:17.813Z,13.33
2017-11-07T11:52:46.092Z,12.10
2017-11-07T11:55:14.382Z,13.23
2017-11-07T11:57:42.660Z,12.40
2017-11-07T12:00:10.949Z,12.50
2017-11-07T12:02:39.220Z,12.43
2017-11-07T12:05:08.349Z,10.30
2017-11-07T12:07:36.640Z,12.53
2017-11-07T12:10:05.705Z,13.50
2017-11-07T12:12:33.989Z,10.90
2017-11-07T12:15:02.295Z,12.63
2017-11-07T12:17:31.336Z,10.13
2017-11-07T12:19:59.620Z,10.87
2017-11-07T12:22:27.904Z,11.50
2017-11-07T12:24:56.766Z,9.82
2017-11-07T12:27:25.047Z,9.77
2017-11-07T12:29:53.324Z,12.50
2017-11-07T12:32:21.823Z,11.03
2017-11-07T12:34:50.876Z,11.12
2017-11-07T12:37:19.160Z,9.80
2017-11-07T12:39:47.428Z,9.47
2017-11-07T12:42:15.717Z,11.07
2017-11-07T12:44:44.000Z,13.50
2017-11-07T12:47:12.275Z,12.00
2017-11-07T12:49:40.552Z,11.83
2017-11-07T12:52:09.767Z,14.48
2017-11-07T12:54:38.036Z,9.90
2017-11-07T12:57:06.333Z,8.87
2017-11-07T12:59:34.614Z,12.10
2017-11-07T13:02:02.905Z,18.73
2017-11-07T13:04:31.192Z,16.00
2017-11-07T13:06:59.472Z,13.52
2017-11-07T13:09:28.535Z,11.63
2017-11-07T13:11:57.408Z,13.20
2017-11-07T13:14:25.681Z,12.70
2017-11-07T13:16:53.969Z,14.55
2017-11-07T13:19:22.261Z,18.10
2017-11-07T13:21:50.541Z,9.60
2017-11-07T13:24:18.832Z,12.97
2017-11-07T13:26:47.134Z,7.80
2017-11-07T13:29:15.419Z,12.43
2017-11-07T13:31:43.725Z,12.17
2017-11-07T13:34:12.016Z,14.13
2017-11-07T13:36:40.290Z,10.13
2017-11-07T13:39:08.584Z,11.18
2017-11-07T13:41:36.862Z,10.25
2017-11-07T13:44:05.147Z,7.90
2017-11-07T13:46:34.188Z,11.70
2017-11-07T13:49:02.451Z,10.87
2017-11-07T13:51:30.728Z,11.60
2017-11-07T13:53:59.012Z,11.17
2017-11-07T13:56:27.281Z,13.77
2017-11-07T13:58:55.561Z,11.77
2017-11-07T14:01:23.846Z,11.40
2017-11-07T14:03:52.138Z,12.60
2017-11-07T14:06:20.415Z,12.77
2017-11-07T14:08:48.709Z,10.40
2017-11-07T14:11:17.001Z,13.20
2017-11-07T14:13:46.044Z,14.57
2017-11-07T14:16:14.336Z,13.67
2017-11-07T14:18:42.610Z,13.17
2017-11-07T14:21:10.936Z,13.40
2017-11-07T14:23:39.292Z,12.13
2017-11-07T14:26:07.568Z,15.53
2017-11-07T14:28:35.852Z,22.20
2017-11-07T14:31:04.148Z,16.25
2017-11-07T14:33:32.429Z,17.83
2017-11-07T14:36:00.709Z,15.47
2017-11-07T14:38:29.005Z,16.37
2017-11-07T14:40:57.290Z,18.57
2017-11-07T14:43:25.661Z,15.00
2017-11-07T14:45:53.947Z,13.73
2017-11-07T14:48:25.653Z,17.50
2017-11-07T14:50:54.564Z,15.70
2017-11-07T14:53:23.171Z,17.30
2017-11-07T14:55:51.628Z,27.67
2017-11-07T14:58:19.933Z,19.30
2017-11-07T15:00:48.221Z,21.23
2017-11-07T15:03:16.500Z,16.97
2017-11-07T15:05:44.776Z,17.30
2017-11-07T15:08:13.077Z,17.10
2017-11-07T15:10:41.501Z,23.27
2017-11-07T15:13:09.863Z,19.00
2017-11-07T15:15:38.144Z,17.50
2017-11-07T15:18:06.436Z,18.50
2017-11-07T15:20:34.728Z,17.87
2017-11-07T15:23:03.008Z,20.17
2017-11-07T15:25:31.749Z,16.63
2017-11-07T15:28:00.830Z,21.27
2017-11-07T15:30:29.212Z,16.60
2017-11-07T15:32:57.504Z,18.40
2017-11-07T15:35:25.779Z,18.40
2017-11-07T15:37:54.075Z,19.90
2017-11-07T15:40:22.356Z,18.00
2017-11-07T15:42:50.640Z,15.90
2017-11-07T15:45:18.929Z,19.77
2017-11-07T15:47:47.203Z,18.83
2017-11-07T15:50:17.016Z,19.97
2017-11-07T15:52:46.129Z,17.40
2017-11-07T15:55:14.652Z,18.60
2017-11-07T15:57:43.432Z,16.50
2017-11-07T16:00:11.803Z,16.40
2017-11-07T16:02:40.141Z,20.40
2017-11-07T16:05:08.440Z,18.70
2017-11-07T16:07:36.974Z,16.83
2017-11-07T16:10:05.265Z,18.93
2017-11-07T16:12:33.789Z,20.87
2017-11-07T16:15:02.240Z,17.00
2017-11-07T16:17:30.539Z,16.23
2017-11-07T16:19:58.849Z,19.55
2017-11-07T16:22:27.244Z,16.63
2017-11-07T16:24:55.564Z,16.47
2017-11-07T16:27:23.899Z,19.70
2017-11-07T16:29:52.361Z,17.43
2017-11-07T16:32:20.630Z,20.03
2017-11-07T16:34:49.117Z,20.73
2017-11-07T16:37:17.470Z,15.47
2017-11-07T16:39:47.372Z,17.03
2017-11-07T16:42:15.638Z,23.43
2017-11-07T16:44:43.911Z,15.80
2017-11-07T16:47:12.265Z,15.85
2017-11-07T16:49:40.610Z,13.87
2017-11-07T16:52:08.916Z,16.00
2017-11-07T16:54:37.274Z,18.50
2017-11-07T16:57:05.756Z,16.80
2017-11-07T16:59:34.070Z,16.27
2017-11-07T17:02:02.424Z,16.53
2017-11-07T17:04:31.505Z,13.97
2017-11-07T17:06:59.787Z,21.87
2017-11-07T17:09:28.155Z,13.40
2017-11-07T17:11:57.448Z,15.10
2017-11-07T17:14:25.738Z,16.10
2017-11-07T17:16:54.036Z,15.43
2017-11-07T17:19:22.318Z,17.43
2017-11-07T17:21:51.384Z,14.10
2017-11-07T17:24:19.666Z,20.90
2017-11-07T17:26:50.161Z,13.25
2017-11-07T17:29:18.539Z,13.20
2017-11-07T17:31:47.588Z,14.00
2017-11-07T17:34:15.876Z,12.30
2017-11-07T17:36:44.162Z,11.50
2017-11-07T17:39:12.521Z,12.73
2017-11-07T17:41:42.529Z,16.27
2017-11-07T17:44:11.005Z,13.63
2017-11-07T17:46:39.494Z,19.30
2017-11-07T17:49:07.794Z,14.98
2017-11-07T17:51:36.072Z,15.10
2017-11-07T17:54:04.493Z,17.83
2017-11-07T17:56:33.052Z,12.63
2017-11-07T17:59:01.389Z,14.00
2017-11-07T18:01:29.729Z,14.73
2017-11-07T18:03:59.001Z,14.30
2017-11-07T18:06:27.337Z,13.67
2017-11-07T18:08:55.840Z,13.20
2017-11-07T18:11:24.290Z,17.63
2017-11-07T18:13:53.722Z,12.43
2017-11-07T18:16:23.307Z,13.67
2017-11-07T18:18:54.847Z,14.13
2017-11-07T18:21:23.458Z,15.15
2017-11-07T18:23:56.201Z,16.62
2017-11-07T18:26:24.947Z,14.80
2017-11-07T18:28:54.488Z,16.50
2017-11-07T18:31:24.118Z,17.30
2017-11-07T18:33:54.083Z,18.80
2017-11-07T18:36:23.642Z,15.45
2017-11-07T18:38:53.326Z,17.77
2017-11-07T18:41:23.155Z,17.35
2017-11-07T18:43:54.689Z,20.37
2017-11-07T18:46:24.448Z,17.77
2017-11-07T18:48:55.259Z,17.47
2017-11-07T18:51:25.858Z,18.52
2017-11-07T18:53:55.613Z,20.17
2017-11-07T18:56:25.458Z,17.07
2017-11-07T18:58:55.344Z,16.07
2017-11-07T19:01:25.329Z,17.93
2017-11-07T19:20:00.188Z,17.73
2017-11-07T19:22:30.054Z,15.53
2017-11-07T19:24:59.978Z,15.40
2017-11-07T19:27:29.823Z,14.20
2017-11-07T19:30:00.189Z,15.30
2017-11-07T19:32:30.043Z,11.97
2017-11-07T19:35:00.084Z,11.83
2017-11-07T19:37:29.990Z,13.80
2017-11-07T19:40:00.779Z,16.33
2017-11-07T19:42:30.735Z,22.60
2017-11-07T19:45:01.456Z,20.30
2017-11-07T19:47:31.421Z,15.47
2017-11-07T19:50:01.249Z,12.77
2017-11-07T19:52:31.061Z,12.83
2017-11-07T19:55:00.993Z,17.53
2017-11-07T19:57:30.940Z,17.33
2017-11-07T20:00:00.902Z,16.27
2017-11-07T20:02:32.235Z,12.90
2017-11-07T20:05:02.236Z,11.03
2017-11-07T20:07:32.125Z,13.77
2017-11-07T20:10:02.791Z,13.50
2017-11-07T20:12:32.765Z,13.30
2017-11-07T20:15:02.602Z,12.10
2017-11-07T20:17:32.823Z,16.53
2017-11-07T20:20:02.838Z,14.63
2017-11-07T20:22:32.761Z,14.23
2017-11-07T20:25:02.645Z,15.33
2017-11-07T20:27:33.300Z,16.87
2017-11-07T20:30:04.148Z,16.37
2017-11-07T20:32:34.065Z,15.03
2017-11-07T20:35:03.923Z,14.13
2017-11-07T20:37:33.828Z,14.83
2017-11-07T20:40:03.741Z,14.07
2017-11-07T20:42:33.772Z,14.57
2017-11-07T20:45:03.681Z,13.33
2017-11-07T20:47:34.341Z,14.20
2017-11-07T20:50:05.118Z,15.07
2017-11-07T20:52:35.018Z,13.03
2017-11-07T20:55:05.025Z,13.93
2017-11-07T20:57:34.932Z,18.95
2017-11-07T21:00:05.051Z,16.20
2017-11-07T21:02:34.823Z,17.60
2017-11-07T21:05:04.644Z,14.47
2017-11-07T21:07:34.660Z,11.13
2017-11-07T21:10:04.619Z,13.07
2017-11-07T21:12:34.452Z,15.13
2017-11-07T21:15:04.304Z,12.60
2017-11-07T21:17:34.089Z,12.90
2017-11-07T21:20:09.259Z,20.23
2017-11-07T21:22:39.027Z,14.97
2017-11-07T21:25:08.835Z,14.53
2017-11-07T21:27:38.588Z,14.90
2017-11-07T21:30:08.344Z,15.73
2017-11-07T21:32:38.182Z,14.83
2017-11-07T21:35:08.082Z,15.23
2017-11-07T21:37:37.168Z,15.83
2017-11-07T21:40:06.411Z,16.73
2017-11-07T21:42:35.104Z,19.37
2017-11-07T21:45:05.011Z,20.27
2017-11-07T21:47:33.372Z,15.53
2017-11-07T21:50:01.746Z,17.40
2017-11-07T21:52:31.164Z,15.57
2017-11-07T21:54:59.544Z,17.60
2017-11-07T21:57:27.903Z,17.80
2017-11-07T21:59:56.293Z,16.30
2017-11-07T22:02:26.549Z,16.57
2017-11-07T22:04:54.850Z,14.38
2017-11-07T22:07:23.133Z,12.50
2017-11-07T22:09:53.338Z,15.10
2017-11-07T22:12:21.637Z,15.47
2017-11-07T22:14:49.921Z,13.25
2017-11-07T22:17:19.738Z,14.35
2017-11-07T22:19:48.065Z,15.40
2017-11-07T22:22:16.357Z,14.43
2017-11-07T22:24:44.747Z,15.83
2017-11-07T22:27:13.968Z,15.53
2017-11-07T22:29:42.250Z,17.03
2017-11-07T22:32:10.564Z,14.93
2017-11-07T22:34:40.351Z,16.87
2017-11-07T22:37:15.581Z,19.53
2017-11-07T22:39:43.871Z,14.80
2017-11-07T22:42:12.164Z,19.12
2017-11-07T22:44:40.445Z,14.87
2017-11-07T22:47:09.494Z,15.60
2017-11-07T22:49:37.777Z,14.33
2017-11-07T22:52:06.094Z,13.63
2017-11-07T22:54:35.140Z,14.93
2017-11-07T22:57:03.409Z,15.70
2017-11-07T22:59:31.722Z,16.97
2017-11-07T23:02:00.742Z,16.53
2017-11-07T23:04:31.334Z,17.30
2017-11-07T23:06:59.618Z,18.13
2017-11-07T23:09:28.735Z,24.17
2017-11-07T23:11:57.015Z,18.53
2017-11-07T23:14:25.292Z,18.90
2017-11-07T23:16:53.582Z,15.70
2017-11-07T23:19:21.872Z,17.73
2017-11-07T23:21:50.157Z,17.60
2017-11-07T23:24:18.433Z,17.70
2017-11-07T23:26:47.654Z,16.73
2017-11-07T23:29:15.949Z,18.42
2017-11-07T23:31:44.233Z,19.70
2017-11-07T23:34:13.281Z,15.93
2017-11-07T23:36:42.765Z,16.33
2017-11-07T23:39:11.049Z,14.13
2017-11-07T23:41:39.340Z,16.55
2017-11-07T23:44:07.628Z,14.17
2017-11-07T23:46:35.921Z,15.33
2017-11-07T23:49:04.212Z,21.43
2017-11-07T23:51:34.177Z,19.10
2017-11-07T23:54:02.459Z,19.10
2017-11-07T23:56:30.721Z,25.27
2017-11-07T23:58:59.009Z,19.47
